Time;durP1;ratioP1;P1;durP2;ratioP2;P2;SDS_P1;SDS_P2;PMS_P1;PMS_P2;Temp;Humidity;BMP_temperature;BMP_pressure;BME280_temperature;BME280_humidity;BME280_pressure;Samples;Min_cycle;Max_cycle;Signal;HPM_P1;HPM_P2
2022/09/22 00:00:46;;;;;;;;;;;;;;;7.79;100.00;99398.32;2199304;80;20092;-58
2022/09/22 00:03:50;;;;;;;;;;;;;;;7.77;100.00;99396.67;2182939;80;20399;-58
2022/09/22 00:06:52;;;;;;;;;;;;;;;7.78;100.00;99401.00;2215906;80;20112;-58
2022/09/22 00:09:53;;;;;;;;;;;;;;;7.70;100.00;99403.06;2212687;80;20189;-58
2022/09/22 00:12:55;;;;;;;;;;;;;;;7.73;100.00;99401.63;2205666;80;20509;-58
2022/09/22 00:15:57;;;;;;;;;;;;;;;7.86;100.00;99401.55;2208456;80;20091;-57
2022/09/22 00:18:59;;;;;;;;;;;;;;;7.76;100.00;99399.76;2212083;80;20155;-58
2022/09/22 00:22:00;;;;;;;;;;;;;;;7.73;100.00;99394.66;2200711;80;20403;-58
2022/09/22 00:25:02;;;;;;;;;;;;;;;7.73;100.00;99395.97;2205225;80;20105;-58
2022/09/22 00:28:03;;;;;;;;;;;;;;;7.65;100.00;99401.10;2207228;80;20108;-58
2022/09/22 00:31:05;;;;;;;;;;;;;;;7.75;100.00;99398.52;2204555;80;20108;-58
2022/09/22 00:34:06;;;;;;;;;;;;;;;7.74;100.00;99401.59;2192405;80;20168;-58
2022/09/22 00:37:08;;;;;;;;;;;;;;;7.73;100.00;99398.58;2211427;80;20379;-58
2022/09/22 00:40:10;;;;;;;;;;;;;;;7.75;100.00;99394.59;2203087;80;20182;-58
2022/09/22 00:43:12;;;;;;;;;;;;;;;7.55;100.00;99402.75;2206471;80;20178;-58
2022/09/22 00:46:13;;;;;;;;;;;;;;;7.51;100.00;99398.56;2204081;80;20580;-58
2022/09/22 00:49:14;;;;;;;;;;;;;;;7.50;100.00;99403.41;2205982;80;20192;-58
2022/09/22 00:52:16;;;;;;;;;;;;;;;7.45;100.00;99399.65;2204077;80;20177;-58
2022/09/22 00:55:18;;;;;;;;;;;;;;;7.43;100.00;99402.79;2206729;80;20197;-58
2022/09/22 00:58:19;;;;;;;;;;;;;;;7.48;100.00;99401.77;2209126;80;20104;-58
2022/09/22 01:01:21;;;;;;;;;;;;;;;7.59;100.00;99408.72;2207466;80;20404;-58
2022/09/22 01:04:22;;;;;;;;;;;;;;;7.54;100.00;99401.08;2207243;80;20136;-57
2022/09/22 01:07:24;;;;;;;;;;;;;;;7.53;100.00;99405.89;2201773;80;20112;-58
2022/09/22 01:10:26;;;;;;;;;;;;;;;7.45;100.00;99400.95;2217207;80;20426;-58
2022/09/22 01:13:28;;;;;;;;;;;;;;;7.37;100.00;99398.25;2201433;80;20107;-58
2022/09/22 01:16:29;;;;;;;;;;;;;;;7.23;100.00;99402.72;2205900;80;20120;-57
2022/09/22 01:19:30;;;;;;;;;;;;;;;7.18;100.00;99399.42;2203087;80;20123;-57
2022/09/22 01:22:32;;;;;;;;;;;;;;;7.01;100.00;99402.66;2206503;80;20100;-58
2022/09/22 01:25:33;;;;;;;;;;;;;;;6.97;100.00;99402.36;2205417;80;20156;-57
2022/09/22 01:28:35;;;;;;;;;;;;;;;6.82;100.00;99407.23;2211891;80;20202;-56
2022/09/22 01:31:36;;;;;;;;;;;;;;;6.73;100.00;99404.98;2203815;80;20202;-56
2022/09/22 01:34:38;;;;;;;;;;;;;;;6.68;100.00;99407.75;2204075;80;20189;-56
2022/09/22 01:37:39;;;;;;;;;;;;;;;6.46;100.00;99402.43;2203042;80;20516;-57
2022/09/22 01:40:41;;;;;;;;;;;;;;;6.49;100.00;99399.71;2200539;80;20133;-57
2022/09/22 01:43:42;;;;;;;;;;;;;;;6.56;100.00;99399.05;2198164;79;20161;-58
2022/09/22 01:46:44;;;;;;;;;;;;;;;6.61;100.00;99394.55;2205322;80;20132;-58
2022/09/22 01:49:45;;;;;;;;;;;;;;;6.64;100.00;99396.16;2209023;80;20124;-56
2022/09/22 01:52:47;;;;;;;;;;;;;;;6.76;100.00;99394.43;2208249;80;20395;-57
2022/09/22 01:55:50;;;;;;;;;;;;;;;6.71;100.00;99394.61;2205929;80;20391;-58
2022/09/22 01:58:51;;;;;;;;;;;;;;;6.73;100.00;99394.55;2205764;80;20154;-57
2022/09/22 02:01:52;;;;;;;;;;;;;;;6.79;100.00;99393.48;2204560;80;20159;-57
2022/09/22 02:04:54;;;;;;;;;;;;;;;6.73;100.00;99391.48;2203536;80;20147;-58
2022/09/22 02:07:56;;;;;;;;;;;;;;;6.84;100.00;99395.44;2204949;80;20101;-57
2022/09/22 02:10:57;;;;;;;;;;;;;;;6.81;100.00;99395.12;2201023;80;20414;-57
2022/09/22 02:13:59;;;;;;;;;;;;;;;7.00;100.00;99394.45;2218224;80;20124;-57
2022/09/22 02:17:01;;;;;;;;;;;;;;;7.14;100.00;99403.05;2207445;80;20108;-58
2022/09/22 02:20:02;;;;;;;;;;;;;;;7.20;100.00;99391.94;2207928;80;20136;-57
2022/09/22 02:23:04;;;;;;;;;;;;;;;7.19;100.00;99398.52;2208712;80;20144;-57
2022/09/22 02:26:05;;;;;;;;;;;;;;;7.23;100.00;99397.03;2201582;80;20411;-56
2022/09/22 02:29:07;;;;;;;;;;;;;;;7.24;100.00;99397.44;2201384;80;20158;-58
2022/09/22 02:32:09;;;;;;;;;;;;;;;7.22;100.00;99397.09;2206482;80;20112;-57
2022/09/22 02:35:11;;;;;;;;;;;;;;;7.09;100.00;99401.92;2208795;80;20097;-58
2022/09/22 02:38:12;;;;;;;;;;;;;;;6.89;100.00;99403.50;2202517;80;20113;-58
2022/09/22 02:41:14;;;;;;;;;;;;;;;6.80;100.00;99405.61;2206972;80;20446;-58
2022/09/22 02:44:15;;;;;;;;;;;;;;;6.80;100.00;99405.61;2209695;80;20198;-58
2022/09/22 02:47:17;;;;;;;;;;;;;;;6.79;100.00;99406.52;2205499;80;20206;-57
2022/09/22 02:50:18;;;;;;;;;;;;;;;6.79;100.00;99411.27;2204333;80;20119;-58
2022/09/22 02:53:20;;;;;;;;;;;;;;;6.85;100.00;99406.28;2208574;80;20116;-58
2022/09/22 02:56:21;;;;;;;;;;;;;;;6.85;100.00;99401.06;2203026;80;20391;-58
2022/09/22 02:59:23;;;;;;;;;;;;;;;6.88;100.00;99395.30;2208037;79;20099;-58
2022/09/22 03:02:24;;;;;;;;;;;;;;;6.89;100.00;99394.38;2198072;80;20375;-59
2022/09/22 03:05:26;;;;;;;;;;;;;;;7.07;100.00;99399.84;2212896;80;20128;-58
2022/09/22 03:08:28;;;;;;;;;;;;;;;7.14;100.00;99399.13;2206122;80;20112;-57
2022/09/22 03:11:30;;;;;;;;;;;;;;;7.07;100.00;99398.53;2204062;80;20387;-58
2022/09/22 03:14:31;;;;;;;;;;;;;;;7.14;100.00;99401.73;2203522;80;20132;-58
2022/09/22 03:17:33;;;;;;;;;;;;;;;7.36;100.00;99393.50;2204644;80;20100;-58
2022/09/22 03:20:34;;;;;;;;;;;;;;;7.40;100.00;99396.39;2204884;80;20133;-57
2022/09/22 03:23:36;;;;;;;;;;;;;;;7.46;100.00;99398.75;2204470;80;20186;-58
2022/09/22 03:26:37;;;;;;;;;;;;;;;7.50;100.00;99394.70;2201304;80;20391;-58
2022/09/22 03:29:39;;;;;;;;;;;;;;;7.48;100.00;99401.30;2205800;80;20136;-57
2022/09/22 03:32:40;;;;;;;;;;;;;;;7.29;100.00;99403.31;2195561;80;20128;-58
2022/09/22 03:35:42;;;;;;;;;;;;;;;7.33;100.00;99396.23;2212009;80;20104;-58
2022/09/22 03:38:43;;;;;;;;;;;;;;;7.33;100.00;99396.70;2190081;80;20144;-57
2022/09/22 03:41:45;;;;;;;;;;;;;;;7.23;100.00;99399.64;2196597;80;20402;-56
2022/09/22 03:44:47;;;;;;;;;;;;;;;7.19;100.00;99400.66;2203494;80;20096;-57
2022/09/22 03:47:48;;;;;;;;;;;;;;;7.16;100.00;99392.12;2196836;80;20108;-58
2022/09/22 03:50:50;;;;;;;;;;;;;;;7.21;100.00;99400.59;2207957;80;20096;-58
2022/09/22 03:53:53;;;;;;;;;;;;;;;7.21;100.00;99396.25;2210350;80;20109;-58
2022/09/22 03:56:54;;;;;;;;;;;;;;;7.22;100.00;99393.17;2207715;80;20161;-58
2022/09/22 03:59:56;;;;;;;;;;;;;;;7.20;100.00;99394.55;2205486;80;20395;-58
2022/09/22 04:02:57;;;;;;;;;;;;;;;7.35;100.00;99390.48;2205207;80;20104;-59
2022/09/22 04:05:58;;;;;;;;;;;;;;;7.31;100.00;99397.19;2204689;80;20372;-58
2022/09/22 04:09:00;;;;;;;;;;;;;;;7.34;100.00;99395.77;2210986;80;20096;-58
2022/09/22 04:12:01;;;;;;;;;;;;;;;7.31;100.00;99402.41;2211387;80;20108;-58
2022/09/22 04:15:03;;;;;;;;;;;;;;;7.46;100.00;99408.35;2205129;80;20233;-58
2022/09/22 04:18:05;;;;;;;;;;;;;;;7.32;100.00;99404.95;2205636;80;20100;-58
2022/09/22 04:21:06;;;;;;;;;;;;;;;7.40;100.00;99404.69;2204049;80;20101;-58
2022/09/22 04:24:10;;;;;;;;;;;;;;;7.40;100.00;99402.08;2200414;80;20163;-58
2022/09/22 04:27:11;;;;;;;;;;;;;;;7.24;100.00;99398.73;2182790;80;20391;-58
2022/09/22 04:30:13;;;;;;;;;;;;;;;7.22;100.00;99404.45;2206632;80;20101;-58
2022/09/22 04:33:15;;;;;;;;;;;;;;;7.22;100.00;99408.83;2203866;80;20101;-58
2022/09/22 04:36:16;;;;;;;;;;;;;;;7.27;100.00;99405.61;2207941;80;20411;-58
2022/09/22 04:39:18;;;;;;;;;;;;;;;7.21;100.00;99399.30;2207541;80;20131;-57
2022/09/22 04:42:19;;;;;;;;;;;;;;;7.23;100.00;99401.41;2201193;80;20187;-58
2022/09/22 04:45:20;;;;;;;;;;;;;;;7.27;100.00;99396.01;2207781;80;20097;-57
2022/09/22 04:48:22;;;;;;;;;;;;;;;7.26;100.00;99404.73;2204351;79;20105;-57
2022/09/22 04:51:23;;;;;;;;;;;;;;;7.37;100.00;99403.47;2206762;80;20096;-58
2022/09/22 04:54:25;;;;;;;;;;;;;;;7.38;100.00;99411.23;2204050;80;20129;-57
2022/09/22 04:57:26;;;;;;;;;;;;;;;7.39;100.00;99412.11;2202706;80;20375;-57
2022/09/22 05:00:28;;;;;;;;;;;;;;;7.36;100.00;99410.92;2203142;80;20108;-58
2022/09/22 05:03:29;;;;;;;;;;;;;;;7.37;100.00;99415.22;2204646;80;20101;-58
2022/09/22 05:06:31;;;;;;;;;;;;;;;7.42;100.00;99415.44;2205673;80;20411;-58
2022/09/22 05:09:32;;;;;;;;;;;;;;;7.53;100.00;99412.86;2201573;80;20102;-58
2022/09/22 05:12:35;;;;;;;;;;;;;;;7.54;100.00;99414.13;2216436;80;20107;-58
2022/09/22 05:15:37;;;;;;;;;;;;;;;7.53;100.00;99407.20;2206671;79;20403;-58
2022/09/22 05:18:38;;;;;;;;;;;;;;;7.54;100.00;99414.13;2204031;80;20119;-58
2022/09/22 05:21:40;;;;;;;;;;;;;;;7.62;100.00;99422.48;2207781;80;20392;-57
2022/09/22 05:24:41;;;;;;;;;;;;;;;7.60;100.00;99422.15;2208320;80;20108;-57
2022/09/22 05:27:43;;;;;;;;;;;;;;;7.56;100.00;99424.05;2198028;80;20110;-57
2022/09/22 05:30:46;;;;;;;;;;;;;;;7.61;100.00;99420.81;2203000;80;20442;-56
2022/09/22 05:33:47;;;;;;;;;;;;;;;7.82;100.00;99420.86;2205308;80;20123;-57
2022/09/22 05:36:48;;;;;;;;;;;;;;;7.84;100.00;99426.86;2211632;80;20097;-57
2022/09/22 05:39:50;;;;;;;;;;;;;;;7.88;100.00;99430.21;2203672;80;20904;-56
2022/09/22 05:42:51;;;;;;;;;;;;;;;7.86;100.00;99432.89;2203700;80;20217;-57
2022/09/22 05:45:53;;;;;;;;;;;;;;;7.90;100.00;99430.55;2205952;80;20092;-57
2022/09/22 05:48:56;;;;;;;;;;;;;;;7.94;100.00;99421.69;2202856;80;20407;-57
2022/09/22 05:51:57;;;;;;;;;;;;;;;7.86;100.00;99415.04;2203560;80;20109;-58
2022/09/22 05:54:59;;;;;;;;;;;;;;;7.86;100.00;99422.88;2207658;80;20097;-58
2022/09/22 05:58:01;;;;;;;;;;;;;;;7.77;100.00;99418.88;2204379;80;20085;-57
2022/09/22 06:01:03;;;;;;;;;;;;;;;7.75;100.00;99422.86;2204408;80;20430;-58
2022/09/22 06:04:05;;;;;;;;;;;;;;;7.88;100.00;99428.91;2206860;80;20206;-57
2022/09/22 06:07:06;;;;;;;;;;;;;;;7.93;100.00;99431.73;2204116;80;20198;-58
2022/09/22 06:10:10;;;;;;;;;;;;;;;8.11;100.00;99441.03;2209354;79;20327;-58
2022/09/22 06:13:12;;;;;;;;;;;;;;;8.28;100.00;99439.87;2205726;80;20096;-57
2022/09/22 06:16:14;;;;;;;;;;;;;;;8.37;100.00;99442.55;2209540;80;20116;-58
2022/09/22 06:19:16;;;;;;;;;;;;;;;8.55;100.00;99457.97;2199715;80;20465;-58
2022/09/22 06:22:17;;;;;;;;;;;;;;;8.60;100.00;99460.37;2209371;80;20155;-58
2022/09/22 06:25:19;;;;;;;;;;;;;;;8.57;100.00;99453.50;2211020;80;20103;-57
2022/09/22 06:28:21;;;;;;;;;;;;;;;8.57;100.00;99457.42;2205929;80;20499;-58
2022/09/22 06:31:23;;;;;;;;;;;;;;;8.65;100.00;99451.42;2203164;80;20193;-58
2022/09/22 06:34:27;;;;;;;;;;;;;;;8.58;100.00;99453.91;2161511;80;20106;-58
2022/09/22 06:37:29;;;;;;;;;;;;;;;8.71;100.00;99448.16;2197570;80;20161;-58
2022/09/22 06:40:32;;;;;;;;;;;;;;;8.73;100.00;99441.92;2177386;80;20096;-58
2022/09/22 06:43:36;;;;;;;;;;;;;;;8.71;100.00;99447.69;2180478;80;20093;-58
2022/09/22 06:46:38;;;;;;;;;;;;;;;8.70;100.00;99443.84;2208007;80;20392;-57
2022/09/22 06:49:41;;;;;;;;;;;;;;;8.87;100.00;99447.03;2208134;80;20092;-58
2022/09/22 06:52:43;;;;;;;;;;;;;;;8.87;100.00;99445.72;2206516;80;20109;-58
2022/09/22 06:55:44;;;;;;;;;;;;;;;8.87;100.00;99445.72;2203814;80;20120;-58
2022/09/22 06:58:48;;;;;;;;;;;;;;;8.85;100.00;99451.02;2188015;80;20402;-58
2022/09/22 07:01:49;;;;;;;;;;;;;;;8.80;100.00;99452.50;2183167;80;20101;-57
2022/09/22 07:04:51;;;;;;;;;;;;;;;8.81;100.00;99449.45;2212592;80;20100;-57
2022/09/22 07:07:52;;;;;;;;;;;;;;;8.79;100.00;99458.67;2194928;80;20181;-57
2022/09/22 07:10:54;;;;;;;;;;;;;;;8.82;100.00;99456.36;2196857;80;20156;-58
2022/09/22 07:13:56;;;;;;;;;;;;;;;8.77;100.00;99462.27;2208692;80;20100;-58
2022/09/22 07:16:57;;;;;;;;;;;;;;;8.78;100.00;99457.44;2211319;80;20195;-58
2022/09/22 07:19:59;;;;;;;;;;;;;;;8.98;100.00;99452.17;2207740;80;20557;-58
2022/09/22 07:23:00;;;;;;;;;;;;;;;8.99;100.00;99459.11;2217764;79;20104;-58
2022/09/22 07:26:03;;;;;;;;;;;;;;;9.08;100.00;99452.61;2205817;80;20095;-58
2022/09/22 07:29:06;;;;;;;;;;;;;;;9.24;100.00;99458.00;2197291;80;20109;-58
2022/09/22 07:32:09;;;;;;;;;;;;;;;9.28;100.00;99454.77;2206010;80;20659;-57
2022/09/22 07:35:11;;;;;;;;;;;;;;;9.35;100.00;99450.51;2199285;80;20399;-57
2022/09/22 07:38:12;;;;;;;;;;;;;;;9.34;100.00;99447.97;2204774;80;20100;-57
2022/09/22 07:41:14;;;;;;;;;;;;;;;9.36;100.00;99451.34;2204577;80;20097;-56
2022/09/22 07:48:34;;;;;;;;;;;;;;;9.68;100.00;99454.23;2180175;80;20097;-58
2022/09/22 07:50:23;;;;;;;;;;;;;;;9.68;100.00;99458.16;2179173;80;20104;-58
2022/09/22 07:53:26;;;;;;;;;;;;;;;9.61;100.00;99452.37;2211329;80;20500;-58
2022/09/22 07:56:29;;;;;;;;;;;;;;;9.66;100.00;99453.47;2205682;80;20104;-58
2022/09/22 07:59:33;;;;;;;;;;;;;;;9.74;100.00;99453.96;2178864;80;20395;-57
2022/09/22 08:02:34;;;;;;;;;;;;;;;9.80;100.00;99456.28;2178220;80;20206;-57
2022/09/22 08:05:35;;;;;;;;;;;;;;;9.88;100.00;99450.22;2203929;80;20103;-57
2022/09/22 08:08:37;;;;;;;;;;;;;;;10.11;100.00;99445.60;2206486;80;20132;-58
2022/09/22 08:11:39;;;;;;;;;;;;;;;10.18;100.00;99450.09;2207397;80;20463;-59
2022/09/22 08:14:40;;;;;;;;;;;;;;;10.39;100.00;99454.77;2204061;80;20089;-58
2022/09/22 08:17:42;;;;;;;;;;;;;;;10.50;100.00;99454.22;2207064;80;20116;-58
2022/09/22 08:20:44;;;;;;;;;;;;;;;10.40;100.00;99457.31;2201477;80;20489;-58
2022/09/22 08:23:46;;;;;;;;;;;;;;;10.33;100.00;99465.52;2203465;80;20217;-58
2022/09/22 08:26:49;;;;;;;;;;;;;;;10.30;100.00;99470.47;2207398;80;20104;-58
2022/09/22 08:29:50;;;;;;;;;;;;;;;10.37;100.00;99465.34;2204162;80;20115;-58
2022/09/22 08:32:52;;;;;;;;;;;;;;;10.44;100.00;99467.17;2206900;80;20109;-58
2022/09/22 08:35:54;;;;;;;;;;;;;;;10.53;100.00;99463.23;2200673;80;20111;-58
2022/09/22 08:38:56;;;;;;;;;;;;;;;10.52;100.00;99468.13;2200438;80;20411;-59
2022/09/22 08:41:58;;;;;;;;;;;;;;;10.53;100.00;99468.48;2204683;80;20096;-57
2022/09/22 08:44:59;;;;;;;;;;;;;;;10.58;100.00;99475.67;2209155;80;20166;-58
2022/09/22 08:54:07;;;;;;;;;;;;;;;10.96;100.00;99465.43;2168571;81;20376;-59
2022/09/22 08:57:09;;;;;;;;;;;;;;;10.99;100.00;99470.52;2207419;79;20149;-58
2022/09/22 09:00:11;;;;;;;;;;;;;;;11.08;100.00;99472.67;2206753;80;20128;-59
2022/09/22 09:03:13;;;;;;;;;;;;;;;11.12;100.00;99467.65;2208576;80;20540;-57
2022/09/22 09:06:15;;;;;;;;;;;;;;;11.06;100.00;99470.13;2210066;80;20096;-58
2022/09/22 09:09:17;;;;;;;;;;;;;;;11.23;100.00;99474.94;2185905;80;20121;-58
2022/09/22 09:12:19;;;;;;;;;;;;;;;11.39;100.00;99473.65;2204225;80;20100;-57
2022/09/22 09:15:21;;;;;;;;;;;;;;;11.58;100.00;99461.22;2205788;80;20109;-58
2022/09/22 09:18:22;;;;;;;;;;;;;;;11.85;100.00;99467.64;2212250;80;20097;-57
2022/09/22 09:21:23;;;;;;;;;;;;;;;11.82;100.00;99463.88;2209863;80;20450;-56
2022/09/22 09:24:25;;;;;;;;;;;;;;;11.96;100.00;99457.41;2207045;80;20108;-57
2022/09/22 09:27:26;;;;;;;;;;;;;;;12.01;100.00;99453.20;2210959;80;20128;-58
2022/09/22 09:30:28;;;;;;;;;;;;;;;11.97;100.00;99451.23;2208623;80;20096;-58
2022/09/22 09:33:31;;;;;;;;;;;;;;;11.92;100.00;99455.85;2204972;80;20289;-57
2022/09/22 09:36:33;;;;;;;;;;;;;;;11.98;100.00;99458.63;2209352;80;20109;-57
2022/09/22 09:39:34;;;;;;;;;;;;;;;12.00;100.00;99456.30;2206783;80;20108;-58
2022/09/22 09:42:36;;;;;;;;;;;;;;;11.94;100.00;99461.44;2205599;80;20097;-58
2022/09/22 09:45:37;;;;;;;;;;;;;;;12.07;100.00;99453.70;2203471;80;20221;-58
2022/09/22 09:48:39;;;;;;;;;;;;;;;12.22;100.00;99451.13;2207256;80;20101;-58
2022/09/22 09:51:42;;;;;;;;;;;;;;;12.40;100.00;99450.06;2204073;80;20107;-59
2022/09/22 09:54:46;;;;;;;;;;;;;;;12.63;100.00;99452.64;2173049;80;20124;-58
2022/09/22 09:57:48;;;;;;;;;;;;;;;12.77;100.00;99443.93;2202320;80;20113;-58
2022/09/22 10:00:49;;;;;;;;;;;;;;;12.87;100.00;99449.46;2205624;80;20092;-58
2022/09/22 10:03:53;;;;;;;;;;;;;;;13.05;100.00;99444.87;2205263;80;20410;-59
2022/09/22 10:06:54;;;;;;;;;;;;;;;13.20;100.00;99454.09;2155537;81;20107;-58
2022/09/22 10:09:56;;;;;;;;;;;;;;;13.19;100.00;99453.25;2212834;80;20128;-58
2022/09/22 10:12:57;;;;;;;;;;;;;;;13.04;100.00;99449.75;2208673;80;20104;-58
2022/09/22 10:15:58;;;;;;;;;;;;;;;13.05;100.00;99450.63;2209485;80;20379;-58
2022/09/22 10:19:00;;;;;;;;;;;;;;;13.18;100.00;99456.82;2180516;79;20111;-58
2022/09/22 10:22:02;;;;;;;;;;;;;;;13.31;100.00;99450.32;2209850;80;20475;-58
2022/09/22 10:25:03;;;;;;;;;;;;;;;13.41;100.00;99451.95;2201734;80;20110;-58
2022/09/22 10:28:08;;;;;;;;;;;;;;;13.69;100.00;99448.38;2201701;80;20128;-58
2022/09/22 10:31:09;;;;;;;;;;;;;;;13.96;100.00;99453.67;2167791;81;20158;-58
2022/09/22 10:34:10;;;;;;;;;;;;;;;14.15;100.00;99441.91;2201687;80;20158;-57
2022/09/22 10:37:11;;;;;;;;;;;;;;;14.13;100.00;99443.34;2202848;80;20199;-58
2022/09/22 10:40:13;;;;;;;;;;;;;;;14.26;100.00;99443.86;2203764;80;20101;-59
2022/09/22 10:43:15;;;;;;;;;;;;;;;14.25;100.00;99445.66;2206343;80;20439;-58
2022/09/22 10:46:16;;;;;;;;;;;;;;;14.43;100.00;99451.48;2207531;80;20108;-59
2022/09/22 10:49:20;;;;;;;;;;;;;;;14.16;100.00;99446.25;2204928;80;20089;-58
2022/09/22 10:52:21;;;;;;;;;;;;;;;14.20;100.00;99441.16;2208244;80;20098;-58
2022/09/22 10:55:23;;;;;;;;;;;;;;;14.19;100.00;99432.41;2205314;80;20153;-59
2022/09/22 10:58:25;;;;;;;;;;;;;;;14.27;100.00;99433.20;2208845;80;20112;-59
2022/09/22 11:01:27;;;;;;;;;;;;;;;14.35;100.00;99440.59;2215756;80;20189;-59
2022/09/22 11:04:28;;;;;;;;;;;;;;;14.09;100.00;99439.69;2215014;80;20100;-57
2022/09/22 11:13:36;;;;;;;;;;;;;;;14.35;100.00;99428.27;2173158;80;20403;-57
2022/09/22 11:16:37;;;;;;;;;;;;;;;14.44;100.00;99432.08;2202665;80;20163;-58
2022/09/22 11:19:39;;;;;;;;;;;;;;;14.42;100.00;99425.20;2203515;80;20135;-58
2022/09/22 11:22:41;;;;;;;;;;;;;;;14.69;100.00;99428.63;2200799;80;20132;-57
2022/09/22 11:25:43;;;;;;;;;;;;;;;14.72;100.00;99421.84;2207425;80;20136;-57
2022/09/22 11:28:45;;;;;;;;;;;;;;;14.66;100.00;99422.23;2210568;80;20187;-56
2022/09/22 11:31:47;;;;;;;;;;;;;;;14.34;100.00;99417.81;2203713;80;20112;-59
2022/09/22 11:34:48;;;;;;;;;;;;;;;14.32;100.00;99418.38;2203325;80;20089;-58
2022/09/22 11:37:50;;;;;;;;;;;;;;;14.34;100.00;99412.53;2206924;80;20431;-58
2022/09/22 11:40:52;;;;;;;;;;;;;;;14.37;100.00;99408.37;2203623;80;20113;-59
2022/09/22 11:43:54;;;;;;;;;;;;;;;14.32;100.00;99411.77;2204084;80;20136;-59
2022/09/22 11:46:55;;;;;;;;;;;;;;;14.27;100.00;99407.30;2205462;80;20407;-58
2022/09/22 11:49:58;;;;;;;;;;;;;;;14.38;100.00;99410.06;2207158;80;20108;-59
2022/09/22 11:53:00;;;;;;;;;;;;;;;14.49;100.00;99409.33;2185215;80;20182;-58
2022/09/22 11:56:03;;;;;;;;;;;;;;;14.72;100.00;99406.45;2203121;80;20089;-59
2022/09/22 11:59:05;;;;;;;;;;;;;;;14.84;100.00;99402.98;2203676;80;20390;-58
2022/09/22 12:02:07;;;;;;;;;;;;;;;14.87;100.00;99406.72;2213024;80;20132;-58
2022/09/22 12:05:09;;;;;;;;;;;;;;;14.93;100.00;99404.59;2201949;80;20128;-57
2022/09/22 12:08:10;;;;;;;;;;;;;;;14.98;100.00;99401.99;2212915;80;20112;-58
2022/09/22 12:11:13;;;;;;;;;;;;;;;14.99;100.00;99405.50;2211766;80;20125;-58
2022/09/22 12:14:14;;;;;;;;;;;;;;;14.84;100.00;99405.62;2200121;80;20134;-58
2022/09/22 12:17:16;;;;;;;;;;;;;;;14.81;100.00;99400.55;2188446;80;20225;-58
2022/09/22 12:20:17;;;;;;;;;;;;;;;14.81;100.00;99392.63;2203108;80;20109;-59
2022/09/22 12:23:19;;;;;;;;;;;;;;;14.90;100.00;99396.42;2211356;80;20128;-59
2022/09/22 12:26:21;;;;;;;;;;;;;;;14.97;100.00;99391.53;2212930;80;20412;-58
2022/09/22 12:29:22;;;;;;;;;;;;;;;15.01;100.00;99402.26;2213665;80;20097;-59
2022/09/22 12:32:24;;;;;;;;;;;;;;;15.00;100.00;99400.59;2209246;80;20132;-58
2022/09/22 12:35:26;;;;;;;;;;;;;;;14.83;100.00;99393.36;2204747;79;20104;-58
2022/09/22 12:38:29;;;;;;;;;;;;;;;14.78;100.00;99398.09;2203916;80;20085;-58
2022/09/22 12:41:30;;;;;;;;;;;;;;;14.70;100.00;99392.53;2207268;80;20105;-58
2022/09/22 12:44:33;;;;;;;;;;;;;;;14.79;100.00;99393.20;2210115;80;20096;-58
2022/09/22 12:47:35;;;;;;;;;;;;;;;14.81;100.00;99386.48;2207442;80;20205;-58
2022/09/22 12:50:36;;;;;;;;;;;;;;;14.78;100.00;99388.02;2206797;80;20399;-58
2022/09/22 12:53:38;;;;;;;;;;;;;;;14.85;100.00;99386.16;2207798;80;20097;-58
2022/09/22 12:56:40;;;;;;;;;;;;;;;15.10;100.00;99371.70;2204952;80;20107;-58
2022/09/22 12:59:41;;;;;;;;;;;;;;;15.37;100.00;99374.17;2199013;80;20171;-57
2022/09/22 13:02:42;;;;;;;;;;;;;;;15.59;100.00;99384.88;2200679;80;20110;-58
2022/09/22 13:05:44;;;;;;;;;;;;;;;15.60;100.00;99381.74;2207039;80;20445;-57
2022/09/22 13:08:45;;;;;;;;;;;;;;;16.01;100.00;99385.82;2213354;80;20127;-58
2022/09/22 13:11:47;;;;;;;;;;;;;;;15.66;100.00;99381.77;2209983;80;20104;-57
2022/09/22 13:14:49;;;;;;;;;;;;;;;15.45;100.00;99387.68;2207483;80;20388;-57
2022/09/22 13:17:50;;;;;;;;;;;;;;;15.14;100.00;99390.35;2216773;80;20189;-57
2022/09/22 13:20:52;;;;;;;;;;;;;;;14.71;100.00;99388.46;2209484;80;20194;-57
2022/09/22 13:23:53;;;;;;;;;;;;;;;14.34;100.00;99408.58;2210086;80;20128;-58
2022/09/22 13:26:56;;;;;;;;;;;;;;;14.16;100.00;99395.64;2207580;80;20149;-58
2022/09/22 13:29:57;;;;;;;;;;;;;;;13.74;100.00;99408.57;2186231;80;20390;-58
2022/09/22 13:32:59;;;;;;;;;;;;;;;13.42;100.00;99412.33;2214645;80;20101;-59
2022/09/22 13:36:01;;;;;;;;;;;;;;;13.15;100.00;99394.64;2205170;80;20247;-58
2022/09/22 13:39:03;;;;;;;;;;;;;;;13.00;100.00;99406.11;2209230;80;20109;-57
2022/09/22 13:42:05;;;;;;;;;;;;;;;12.95;100.00;99405.57;2206347;80;20132;-58
2022/09/22 13:45:06;;;;;;;;;;;;;;;12.99;100.00;99401.33;2203466;80;20159;-58
2022/09/22 13:48:08;;;;;;;;;;;;;;;13.12;100.00;99390.88;2192068;80;20092;-58
2022/09/22 13:51:10;;;;;;;;;;;;;;;13.55;100.00;99378.58;2185199;80;20109;-58
2022/09/22 13:54:12;;;;;;;;;;;;;;;13.93;100.00;99371.29;2209181;80;20193;-58
2022/09/22 13:57:13;;;;;;;;;;;;;;;14.30;100.00;99381.54;2213012;80;20099;-58
2022/09/22 14:00:15;;;;;;;;;;;;;;;14.49;100.00;99370.56;2209048;80;20123;-58
2022/09/22 14:03:16;;;;;;;;;;;;;;;14.93;100.00;99364.97;2205879;80;20138;-59
2022/09/22 14:06:18;;;;;;;;;;;;;;;15.24;100.00;99366.28;2208376;80;20481;-59
2022/09/22 14:09:20;;;;;;;;;;;;;;;15.35;100.00;99362.39;2212913;79;20174;-58
2022/09/22 14:12:21;;;;;;;;;;;;;;;15.44;100.00;99355.59;2202819;80;20127;-58
2022/09/22 14:15:23;;;;;;;;;;;;;;;15.54;100.00;99359.73;2206203;80;20440;-57
2022/09/22 14:18:25;;;;;;;;;;;;;;;15.27;100.00;99363.90;2207190;80;20132;-58
2022/09/22 14:21:26;;;;;;;;;;;;;;;15.02;100.00;99359.88;2207140;80;20112;-58
2022/09/22 14:24:28;;;;;;;;;;;;;;;14.84;100.00;99363.82;2202401;80;20101;-59
2022/09/22 14:27:30;;;;;;;;;;;;;;;14.67;100.00;99361.89;2206324;80;20124;-57
2022/09/22 14:30:31;;;;;;;;;;;;;;;14.29;100.00;99365.33;2207113;80;20104;-57
2022/09/22 14:33:34;;;;;;;;;;;;;;;14.07;100.00;99364.62;2213769;80;20391;-58
2022/09/22 14:36:36;;;;;;;;;;;;;;;13.96;100.00;99359.22;2197047;80;20100;-58
2022/09/22 14:39:37;;;;;;;;;;;;;;;14.18;100.00;99355.52;2193823;80;20085;-58
2022/09/22 14:42:39;;;;;;;;;;;;;;;14.31;100.00;99359.48;2206059;80;20395;-58
2022/09/22 14:45:40;;;;;;;;;;;;;;;14.32;100.00;99356.36;2206758;80;20119;-58
2022/09/22 14:48:42;;;;;;;;;;;;;;;14.12;100.00;99353.75;2206118;80;20126;-58
2022/09/22 14:51:44;;;;;;;;;;;;;;;13.88;100.00;99353.14;2206629;80;20100;-58
2022/09/22 14:54:46;;;;;;;;;;;;;;;13.94;100.00;99354.05;2203800;80;20105;-58
2022/09/22 14:57:47;;;;;;;;;;;;;;;14.11;100.00;99346.33;2205848;80;20398;-58
2022/09/22 15:03:52;;;;;;;;;;;;;;;13.90;100.00;99345.13;2177015;80;20501;-57
2022/09/22 15:06:55;;;;;;;;;;;;;;;13.87;100.00;99336.94;2206658;80;20151;-57
2022/09/22 15:09:57;;;;;;;;;;;;;;;13.89;100.00;99340.30;2211165;80;20124;-57
2022/09/22 15:12:59;;;;;;;;;;;;;;;13.97;100.00;99337.18;2202944;80;20162;-57
2022/09/22 15:16:00;;;;;;;;;;;;;;;13.98;100.00;99342.34;2196800;80;20490;-58
2022/09/22 15:19:02;;;;;;;;;;;;;;;14.07;100.00;99340.88;2200763;79;20108;-59
2022/09/22 15:22:06;;;;;;;;;;;;;;;14.37;100.00;99342.39;2200677;80;20124;-58
2022/09/22 15:25:07;;;;;;;;;;;;;;;14.84;100.00;99332.13;2191361;79;20108;-58
2022/09/22 15:28:10;;;;;;;;;;;;;;;16.23;100.00;99329.95;2212367;79;20102;-58
2022/09/22 15:34:15;;;;;;;;;;;;;;;15.67;100.00;99327.45;2181441;79;20098;-58
2022/09/22 15:37:18;;;;;;;;;;;;;;;15.68;100.00;99329.16;2216300;79;20109;-58
2022/09/22 15:40:20;;;;;;;;;;;;;;;15.68;100.00;99337.58;2207511;80;20398;-59
2022/09/22 15:43:22;;;;;;;;;;;;;;;16.34;100.00;99336.59;2202846;80;20120;-58
2022/09/22 15:46:27;;;;;;;;;;;;;;;15.76;100.00;99341.82;2209011;80;20135;-59
2022/09/22 15:49:28;;;;;;;;;;;;;;;15.42;100.00;99339.01;2184953;81;20109;-59
2022/09/22 15:52:29;;;;;;;;;;;;;;;15.20;100.00;99336.60;2203565;80;20096;-58
2022/09/22 15:55:31;;;;;;;;;;;;;;;15.20;100.00;99340.56;2200529;80;20399;-58
2022/09/22 15:58:32;;;;;;;;;;;;;;;14.69;100.00;99341.50;2208700;80;20154;-59
2022/09/22 16:01:34;;;;;;;;;;;;;;;14.11;100.00;99344.17;2208680;80;20124;-59